createdAt,value
2023-02-08T00:00:47.107Z,-0.80
2023-02-08T00:03:13.842Z,-0.80
2023-02-08T00:05:41.123Z,-0.90
2023-02-08T00:08:08.154Z,-1.00
2023-02-08T00:10:36.223Z,-1.00
2023-02-08T00:13:03.194Z,-1.00
2023-02-08T00:15:30.352Z,-1.00
2023-02-08T00:17:57.106Z,-0.90
2023-02-08T00:20:23.930Z,-0.90
2023-02-08T00:22:52.573Z,-1.00
2023-02-08T00:25:20.209Z,-0.90
2023-02-08T00:27:47.462Z,-0.80
2023-02-08T00:30:14.320Z,-0.90
2023-02-08T00:32:41.425Z,-0.80
2023-02-08T00:35:08.328Z,-0.90
2023-02-08T00:37:35.778Z,-0.90
2023-02-08T00:40:02.716Z,-0.80
2023-02-08T00:42:30.336Z,-0.60
2023-02-08T00:44:57.447Z,-0.50
2023-02-08T00:47:24.953Z,-0.60
2023-02-08T00:49:52.471Z,-0.60
2023-02-08T00:52:19.603Z,-0.70
2023-02-08T00:54:47.240Z,-0.80
2023-02-08T00:57:14.731Z,-0.70
2023-02-08T00:59:41.976Z,-0.70
2023-02-08T01:02:08.837Z,-0.70
2023-02-08T01:04:36.421Z,-0.70
2023-02-08T01:07:03.313Z,-0.80
2023-02-08T01:09:30.438Z,-0.80
2023-02-08T01:11:57.483Z,-0.80
2023-02-08T01:14:25.032Z,-0.70
2023-02-08T01:16:52.109Z,-0.80
2023-02-08T01:19:19.147Z,-0.80
2023-02-08T01:21:46.665Z,-0.80
2023-02-08T01:24:13.742Z,-0.80
2023-02-08T01:26:40.697Z,-0.70
2023-02-08T01:29:08.372Z,-0.80
2023-02-08T01:31:38.697Z,-0.80
2023-02-08T01:34:07.224Z,-0.90
2023-02-08T01:36:34.571Z,-1.00
2023-02-08T01:39:01.900Z,-0.90
2023-02-08T01:41:32.909Z,-0.80
2023-02-08T01:44:11.798Z,-0.60
2023-02-08T01:46:44.380Z,-0.60
2023-02-08T01:49:25.312Z,-0.70
2023-02-08T01:52:14.458Z,-0.70
2023-02-08T01:54:46.590Z,-0.60
2023-02-08T01:57:13.706Z,-0.60
2023-02-08T01:59:48.497Z,-0.60
2023-02-08T02:02:19.660Z,-0.50
2023-02-08T02:04:48.020Z,-0.30
2023-02-08T02:07:16.284Z,-0.50
2023-02-08T02:09:50.444Z,-0.60
2023-02-08T02:12:18.180Z,-0.60
2023-02-08T02:14:46.069Z,-0.50
2023-02-08T02:17:15.319Z,-0.50
2023-02-08T02:20:01.952Z,-0.50
2023-02-08T02:22:32.096Z,-0.30
2023-02-08T02:25:17.304Z,-0.50
2023-02-08T02:27:56.370Z,-0.60
2023-02-08T02:30:35.071Z,-0.60
2023-02-08T02:33:23.828Z,-0.70
2023-02-08T02:36:19.004Z,-0.70
2023-02-08T02:39:07.852Z,-0.70
2023-02-08T02:42:29.426Z,-0.60
2023-02-08T02:45:19.178Z,-0.40
2023-02-08T02:47:56.086Z,-0.60
2023-02-08T02:50:32.158Z,-0.50
2023-02-08T02:53:19.666Z,-0.60
2023-02-08T02:55:56.272Z,-0.50
2023-02-08T02:58:25.207Z,-0.60
2023-02-08T03:00:54.582Z,-0.50
2023-02-08T03:03:25.254Z,-0.60
2023-02-08T03:05:57.341Z,-0.70
2023-02-08T03:08:45.109Z,-0.60
2023-02-08T03:11:33.135Z,-0.60
2023-02-08T03:14:21.032Z,-0.60
2023-02-08T03:17:04.577Z,-0.50
2023-02-08T03:20:03.302Z,-0.50
2023-02-08T03:22:53.322Z,-0.60
2023-02-08T03:25:32.918Z,-0.80
2023-02-08T03:28:24.801Z,-0.80
2023-02-08T03:31:00.628Z,-0.80
2023-02-08T03:33:44.306Z,-0.70
2023-02-08T03:36:51.551Z,-0.80
2023-02-08T03:39:26.261Z,-0.80
2023-02-08T03:41:58.865Z,-0.70
2023-02-08T03:44:36.815Z,-0.80
2023-02-08T03:47:43.360Z,-0.90
2023-02-08T03:50:13.424Z,-0.80
2023-02-08T03:52:41.086Z,-0.80
2023-02-08T03:55:13.769Z,-0.60
2023-02-08T03:57:58.672Z,-0.60
2023-02-08T04:00:26.236Z,-0.50
2023-02-08T04:03:10.912Z,-0.50
2023-02-08T04:05:38.216Z,-0.40
2023-02-08T04:08:05.159Z,-0.30
2023-02-08T04:10:32.394Z,-0.10
2023-02-08T04:12:59.759Z,-0.10
2023-02-08T04:15:27.428Z,-0.10
2023-02-08T04:17:55.384Z,-0.10
2023-02-08T04:20:22.126Z,-0.30
2023-02-08T04:22:49.439Z,-0.20
2023-02-08T04:25:16.527Z,-0.30
2023-02-08T04:27:43.878Z,-0.40
2023-02-08T04:30:11.353Z,-0.40
2023-02-08T04:32:38.178Z,-0.40
2023-02-08T04:35:05.685Z,-0.30
2023-02-08T04:37:32.779Z,-0.30
2023-02-08T04:40:00.159Z,-0.20
2023-02-08T04:42:26.926Z,-0.40
2023-02-08T04:44:54.044Z,-0.20
2023-02-08T04:47:20.788Z,-0.20
2023-02-08T04:49:48.100Z,-0.30
2023-02-08T04:52:15.413Z,-0.30
2023-02-08T04:54:42.750Z,0.10
2023-02-08T04:57:13.896Z,0.40
2023-02-08T04:59:40.891Z,0.50
2023-02-08T05:02:07.664Z,0.40
2023-02-08T05:04:34.648Z,0.30
2023-02-08T05:07:02.197Z,0.10
2023-02-08T05:09:29.041Z,-0.10
2023-02-08T05:11:55.809Z,0.10
2023-02-08T05:14:23.132Z,0.10
2023-02-08T05:16:50.272Z,0.00
2023-02-08T05:19:17.030Z,-0.30
2023-02-08T05:21:43.788Z,-0.20
2023-02-08T05:24:12.958Z,-0.20
2023-02-08T05:26:41.073Z,-0.30
2023-02-08T05:29:08.247Z,-0.40
2023-02-08T05:31:35.639Z,-0.70
2023-02-08T05:34:03.035Z,-0.70
2023-02-08T05:36:29.789Z,-0.70
2023-02-08T05:38:56.905Z,-0.70
2023-02-08T05:41:23.641Z,-0.90
2023-02-08T05:43:50.847Z,-0.90
2023-02-08T05:46:18.127Z,-1.00
2023-02-08T05:48:45.093Z,-1.10
2023-02-08T05:51:12.300Z,-1.20
2023-02-08T05:53:39.447Z,-1.20
2023-02-08T05:56:06.538Z,-1.30
2023-02-08T05:58:34.295Z,-1.30
2023-02-08T06:01:01.581Z,-1.30
2023-02-08T06:03:28.378Z,-1.30
2023-02-08T06:05:55.568Z,-1.40
2023-02-08T06:08:22.369Z,-1.40
2023-02-08T06:10:50.564Z,-1.40
2023-02-08T06:13:17.395Z,-1.50
2023-02-08T06:15:44.749Z,-1.50
2023-02-08T06:18:12.496Z,-1.70
2023-02-08T06:20:39.680Z,-1.70
2023-02-08T06:23:07.193Z,-1.70
2023-02-08T06:25:34.011Z,-1.70
2023-02-08T06:28:01.388Z,-1.70
2023-02-08T06:30:28.154Z,-1.80
2023-02-08T06:32:55.104Z,-1.80
2023-02-08T06:35:21.860Z,-1.80
2023-02-08T06:37:48.669Z,-1.70
2023-02-08T06:40:17.858Z,-1.70
2023-02-08T06:42:44.638Z,-1.80
2023-02-08T06:45:13.654Z,-1.70
2023-02-08T06:47:40.594Z,-1.50
2023-02-08T06:50:07.993Z,-1.50
2023-02-08T06:52:35.507Z,-1.60
2023-02-08T06:55:02.730Z,-1.70
2023-02-08T06:57:29.526Z,-1.60
2023-02-08T06:59:56.260Z,-1.70
2023-02-08T07:02:23.135Z,-1.70
2023-02-08T07:04:50.558Z,-1.80
2023-02-08T07:07:18.534Z,-1.70
2023-02-08T07:09:45.819Z,-1.60
2023-02-08T07:12:12.765Z,-1.60
2023-02-08T07:14:42.303Z,-1.60
2023-02-08T07:17:10.298Z,-1.50
2023-02-08T07:19:37.144Z,-1.40
2023-02-08T07:22:11.108Z,-1.40
2023-02-08T07:24:40.358Z,-1.20
2023-02-08T07:27:09.713Z,-1.00
2023-02-08T07:29:37.265Z,-0.90
2023-02-08T07:32:05.718Z,-0.90
2023-02-08T07:34:35.530Z,-1.00
2023-02-08T07:37:02.401Z,-0.80
2023-02-08T07:39:31.454Z,-0.70
2023-02-08T07:41:59.638Z,-0.70
2023-02-08T07:44:27.066Z,-0.60
2023-02-08T07:46:54.987Z,-0.50
2023-02-08T07:49:22.317Z,-0.40
2023-02-08T07:51:49.447Z,-0.30
2023-02-08T07:54:17.960Z,-0.20
2023-02-08T07:56:44.824Z,-0.30
2023-02-08T07:59:12.031Z,-0.20
2023-02-08T08:01:39.435Z,-0.20
2023-02-08T08:04:06.272Z,-0.10
2023-02-08T08:06:33.583Z,0.10
2023-02-08T08:09:00.766Z,0.20
2023-02-08T08:11:28.232Z,0.30
2023-02-08T08:13:55.459Z,0.40
2023-02-08T08:16:22.721Z,0.40
2023-02-08T08:18:51.233Z,0.40
2023-02-08T08:21:18.090Z,0.40
2023-02-08T08:23:45.002Z,0.50
2023-02-08T08:26:17.476Z,0.50
2023-02-08T08:28:47.247Z,0.50
2023-02-08T08:31:18.207Z,0.60
2023-02-08T08:33:46.063Z,0.60
2023-02-08T08:36:12.936Z,0.70
2023-02-08T08:38:41.112Z,0.50
2023-02-08T08:41:15.333Z,0.50
2023-02-08T08:43:42.207Z,0.70
2023-02-08T08:46:09.773Z,0.80
2023-02-08T08:48:38.312Z,0.90
2023-02-08T08:51:06.145Z,1.00
2023-02-08T08:53:33.623Z,1.00
2023-02-08T08:56:00.645Z,1.30
2023-02-08T08:58:27.916Z,1.40
2023-02-08T09:01:00.162Z,1.40
2023-02-08T09:03:28.522Z,1.50
2023-02-08T09:05:55.576Z,1.40
2023-02-08T09:08:22.481Z,1.20
2023-02-08T09:10:49.489Z,1.30
2023-02-08T09:13:19.629Z,1.40
2023-02-08T09:15:48.760Z,1.60
2023-02-08T09:18:16.009Z,1.50
2023-02-08T09:20:43.416Z,1.60
2023-02-08T09:23:10.499Z,1.30
2023-02-08T09:25:37.942Z,1.30
2023-02-08T09:28:05.417Z,1.20
2023-02-08T09:30:33.058Z,1.20
2023-02-08T09:33:00.188Z,1.30
2023-02-08T09:35:28.093Z,1.40
2023-02-08T09:37:57.640Z,1.60
2023-02-08T09:40:30.283Z,1.70
2023-02-08T09:43:23.421Z,2.20
2023-02-08T09:46:00.528Z,2.20
2023-02-08T09:48:37.543Z,2.00
2023-02-08T09:51:22.969Z,1.90
2023-02-08T09:53:57.222Z,1.80
2023-02-08T09:56:33.543Z,1.80
2023-02-08T09:59:01.944Z,1.80
2023-02-08T10:01:32.234Z,1.80
2023-02-08T10:04:13.066Z,1.70
2023-02-08T10:06:40.365Z,1.60
2023-02-08T10:09:14.448Z,1.50
2023-02-08T10:12:00.001Z,1.60
2023-02-08T10:14:44.166Z,1.60
2023-02-08T10:17:16.700Z,1.70
2023-02-08T10:19:46.606Z,1.70
2023-02-08T10:22:33.999Z,1.50
2023-02-08T10:25:23.629Z,1.50
2023-02-08T10:28:07.237Z,1.40
2023-02-08T10:31:12.809Z,1.40
2023-02-08T10:33:55.546Z,1.30
2023-02-08T10:36:27.194Z,1.20
2023-02-08T10:38:57.613Z,1.10
2023-02-08T10:41:34.018Z,1.10
2023-02-08T10:44:18.296Z,1.10
2023-02-08T10:47:10.242Z,1.30
2023-02-08T10:49:53.512Z,1.60
2023-02-08T10:52:20.316Z,1.60
2023-02-08T10:54:49.773Z,2.00
2023-02-08T10:57:26.015Z,2.00
2023-02-08T11:00:11.784Z,2.10
2023-02-08T11:02:43.011Z,2.10
2023-02-08T11:05:12.542Z,2.20
2023-02-08T11:07:41.975Z,2.50
2023-02-08T11:10:23.549Z,2.60
2023-02-08T11:12:59.809Z,2.80
2023-02-08T11:15:45.806Z,2.60
2023-02-08T11:18:27.785Z,2.20
2023-02-08T11:21:02.445Z,2.10
2023-02-08T11:23:39.716Z,2.20
2023-02-08T11:26:18.360Z,2.30
2023-02-08T11:28:58.385Z,2.40
2023-02-08T11:31:28.354Z,2.40
2023-02-08T11:34:03.955Z,2.10
2023-02-08T11:36:33.529Z,2.20
2023-02-08T11:39:21.625Z,2.30
2023-02-08T11:41:51.280Z,2.40
2023-02-08T11:44:29.291Z,2.50
2023-02-08T11:46:59.936Z,2.30
2023-02-08T11:49:37.806Z,2.40
2023-02-08T11:52:25.882Z,2.50
2023-02-08T11:54:54.107Z,2.50
2023-02-08T11:57:23.680Z,2.60
2023-02-08T11:59:52.903Z,2.80
2023-02-08T12:02:39.233Z,2.70
2023-02-08T12:05:14.991Z,2.50
2023-02-08T12:07:59.685Z,2.40
2023-02-08T12:10:33.392Z,2.50
2023-02-08T12:13:35.608Z,2.80
2023-02-08T12:16:34.511Z,2.80
2023-02-08T12:19:28.759Z,2.60
2023-02-08T12:22:10.871Z,2.60
2023-02-08T12:25:02.665Z,2.40
2023-02-08T12:27:35.896Z,2.30
2023-02-08T12:30:17.296Z,2.10
2023-02-08T12:32:57.247Z,1.80
2023-02-08T12:35:57.282Z,1.80
2023-02-08T12:39:18.522Z,1.70
2023-02-08T12:42:07.743Z,1.70
2023-02-08T12:44:56.510Z,1.80
2023-02-08T12:47:35.126Z,1.90
2023-02-08T12:50:32.238Z,1.90
2023-02-08T12:53:07.381Z,2.10
2023-02-08T12:55:45.022Z,2.00
2023-02-08T12:58:30.622Z,2.10
2023-02-08T13:01:30.939Z,2.50
2023-02-08T13:04:22.536Z,2.30
2023-02-08T13:07:03.257Z,2.20
2023-02-08T13:09:55.782Z,2.10
2023-02-08T13:12:49.638Z,2.10
2023-02-08T13:15:30.965Z,2.10
2023-02-08T13:18:02.790Z,2.00
2023-02-08T13:20:52.462Z,2.00
2023-02-08T13:23:52.930Z,1.90
2023-02-08T13:26:32.279Z,2.00
2023-02-08T13:29:02.322Z,2.10
2023-02-08T13:31:34.236Z,2.20
2023-02-08T13:34:08.357Z,2.20
2023-02-08T13:36:38.437Z,2.30
2023-02-08T13:39:08.953Z,2.40
2023-02-08T13:41:37.101Z,2.40
2023-02-08T13:44:13.647Z,2.30
2023-02-08T13:46:51.016Z,2.10
2023-02-08T13:49:51.542Z,1.90
2023-02-08T13:52:47.455Z,1.80
2023-02-08T13:55:58.216Z,2.00
2023-02-08T13:58:48.654Z,1.90
2023-02-08T14:01:24.770Z,1.70
2023-02-08T14:04:13.219Z,1.50
2023-02-08T14:06:50.213Z,1.50
2023-02-08T14:09:54.902Z,1.50
2023-02-08T14:12:39.960Z,1.40
2023-02-08T14:15:15.578Z,1.40
2023-02-08T14:17:47.618Z,1.50
2023-02-08T14:20:42.264Z,1.80
2023-02-08T14:23:23.582Z,1.80
2023-02-08T14:25:56.619Z,1.80
2023-02-08T14:28:44.449Z,1.90
2023-02-08T14:31:14.818Z,2.00
2023-02-08T14:33:53.844Z,2.20
2023-02-08T14:36:26.613Z,2.40
2023-02-08T14:39:14.914Z,2.40
2023-02-08T14:41:51.296Z,2.20
2023-02-08T14:44:48.980Z,1.90
2023-02-08T14:47:39.115Z,1.70
2023-02-08T14:50:17.463Z,1.60
2023-02-08T14:53:10.721Z,1.40
2023-02-08T14:56:08.742Z,1.40
2023-02-08T14:58:42.566Z,1.10
2023-02-08T15:01:44.335Z,1.10
2023-02-08T15:04:12.697Z,1.10
2023-02-08T15:06:42.016Z,0.90
2023-02-08T15:09:23.499Z,0.90
2023-02-08T15:12:04.498Z,0.90
2023-02-08T15:14:37.283Z,0.80
2023-02-08T15:17:04.271Z,0.80
2023-02-08T15:19:40.567Z,0.70
2023-02-08T15:22:37.820Z,0.70
2023-02-08T15:25:22.836Z,0.70
2023-02-08T15:27:53.102Z,0.70
2023-02-08T15:30:38.679Z,0.60
2023-02-08T15:33:14.820Z,0.50
2023-02-08T15:35:43.344Z,0.50
2023-02-08T15:38:17.303Z,0.60
2023-02-08T15:41:10.284Z,0.90
2023-02-08T15:43:39.219Z,0.50
2023-02-08T15:46:18.194Z,0.40
2023-02-08T15:48:49.147Z,0.40
2023-02-08T15:51:17.389Z,0.30
2023-02-08T15:53:47.060Z,0.30
2023-02-08T15:56:35.843Z,0.20
2023-02-08T15:59:06.588Z,0.20
2023-02-08T16:01:34.468Z,0.20
2023-02-08T16:04:12.573Z,0.10
2023-02-08T16:06:54.989Z,0.00
2023-02-08T16:09:27.493Z,0.20
2023-02-08T16:11:59.358Z,0.00
2023-02-08T16:14:30.258Z,0.00
2023-02-08T16:16:58.959Z,0.20
2023-02-08T16:19:28.958Z,0.00
2023-02-08T16:22:14.767Z,-0.10
2023-02-08T16:24:41.633Z,-0.10
2023-02-08T16:27:27.560Z,-0.20
2023-02-08T16:29:54.893Z,-0.30
2023-02-08T16:32:28.999Z,-0.30
2023-02-08T16:35:00.158Z,-0.20
2023-02-08T16:37:35.702Z,-0.20
2023-02-08T16:40:39.821Z,-0.20
2023-02-08T16:43:27.649Z,-0.20
2023-02-08T16:46:21.436Z,-0.20
2023-02-08T16:48:56.259Z,-0.20
2023-02-08T16:51:29.759Z,-0.30
2023-02-08T16:54:02.588Z,-0.30
2023-02-08T16:56:29.525Z,-0.30
2023-02-08T16:58:56.333Z,-0.30
2023-02-08T17:01:24.588Z,-0.30
2023-02-08T17:03:53.070Z,-0.50
2023-02-08T17:06:29.834Z,-0.30
2023-02-08T17:08:58.050Z,-0.30
2023-02-08T17:11:25.300Z,-0.40
2023-02-08T17:13:52.851Z,-0.50
2023-02-08T17:16:23.486Z,-0.50
2023-02-08T17:18:50.856Z,-0.60
2023-02-08T17:21:18.041Z,-0.60
2023-02-08T17:23:45.738Z,-0.60
2023-02-08T17:26:37.844Z,-0.60
2023-02-08T17:29:05.623Z,-0.70
2023-02-08T17:31:32.678Z,-0.70
2023-02-08T17:34:04.445Z,-0.70
2023-02-08T17:36:36.702Z,-0.70
2023-02-08T17:39:05.965Z,-0.80
2023-02-08T17:41:32.992Z,-0.90
2023-02-08T17:44:00.548Z,-0.90
2023-02-08T17:46:30.455Z,-0.90
2023-02-08T17:49:02.081Z,-0.80
2023-02-08T17:51:29.949Z,-0.80
2023-02-08T17:53:56.960Z,-0.80
2023-02-08T17:56:30.367Z,-0.90
2023-02-08T17:58:59.321Z,-0.90
2023-02-08T18:01:27.328Z,-0.90
2023-02-08T18:03:54.638Z,-0.90
2023-02-08T18:06:23.886Z,-0.90
2023-02-08T18:08:51.646Z,-1.00
2023-02-08T18:11:20.980Z,-0.90
2023-02-08T18:13:49.749Z,-1.00
2023-02-08T18:16:26.573Z,-0.90
2023-02-08T18:18:58.492Z,-1.00
2023-02-08T18:21:26.572Z,-1.00
2023-02-08T18:23:55.462Z,-1.00
2023-02-08T18:26:24.238Z,-1.00
2023-02-08T18:28:52.197Z,-0.90
2023-02-08T18:31:20.627Z,-1.00
2023-02-08T18:33:49.256Z,-1.00
2023-02-08T18:36:16.774Z,-1.10
2023-02-08T18:38:45.755Z,-1.10
2023-02-08T18:41:20.295Z,-1.10
2023-02-08T18:43:47.642Z,-1.10
2023-02-08T18:46:18.424Z,-1.20
2023-02-08T18:48:46.550Z,-1.20
2023-02-08T18:51:16.911Z,-1.30
2023-02-08T18:53:47.605Z,-1.30
2023-02-08T18:56:14.987Z,-1.20
2023-02-08T18:58:42.247Z,-1.10
2023-02-08T19:01:15.115Z,-1.30
2023-02-08T19:03:43.244Z,-1.30
2023-02-08T19:06:12.895Z,-1.30
2023-02-08T19:08:41.654Z,-1.40
2023-02-08T19:11:24.626Z,-1.50
2023-02-08T19:13:52.802Z,-1.40
2023-02-08T19:16:22.111Z,-1.40
2023-02-08T19:18:49.508Z,-1.30
2023-02-08T19:21:17.824Z,-1.30
2023-02-08T19:23:51.806Z,-1.20
2023-02-08T19:26:21.674Z,-1.40
2023-02-08T19:28:51.766Z,-1.20
2023-02-08T19:31:21.661Z,-1.30
2023-02-08T19:33:50.470Z,-1.40
2023-02-08T19:36:22.866Z,-1.30
2023-02-08T19:38:50.251Z,-1.30
2023-02-08T19:41:23.954Z,-1.40
2023-02-08T19:43:51.594Z,-1.50
2023-02-08T19:46:22.816Z,-1.50
2023-02-08T19:48:50.973Z,-1.30
2023-02-08T19:51:18.523Z,-1.30
2023-02-08T19:53:45.774Z,-1.00
2023-02-08T19:56:15.135Z,-1.20
2023-02-08T19:58:42.264Z,-1.20
2023-02-08T20:01:19.266Z,-1.50
2023-02-08T20:03:47.564Z,-1.50
2023-02-08T20:06:27.176Z,-1.30
2023-02-08T20:08:54.459Z,-1.40
2023-02-08T20:11:27.404Z,-1.30
2023-02-08T20:13:56.490Z,-1.50
2023-02-08T20:16:24.530Z,-1.50
2023-02-08T20:18:51.524Z,-1.60
2023-02-08T20:21:19.253Z,-1.50
2023-02-08T20:23:47.397Z,-1.40
2023-02-08T20:26:19.597Z,-1.60
2023-02-08T20:28:52.349Z,-1.70
2023-02-08T20:31:26.706Z,-1.80
2023-02-08T20:33:54.552Z,-1.90
2023-02-08T20:36:24.761Z,-1.80
2023-02-08T20:38:53.162Z,-1.80
2023-02-08T20:41:20.975Z,-1.70
2023-02-08T20:43:48.067Z,-1.70
2023-02-08T20:46:41.323Z,-1.90
2023-02-08T20:49:08.639Z,-2.10
2023-02-08T20:51:35.647Z,-2.10
2023-02-08T20:54:03.637Z,-2.00
2023-02-08T20:56:35.910Z,-2.10
2023-02-08T20:59:06.713Z,-2.10
2023-02-08T21:01:34.948Z,-2.00
2023-02-08T21:04:03.230Z,-2.10
2023-02-08T21:06:33.261Z,-2.20
2023-02-08T21:09:09.617Z,-1.90
2023-02-08T21:11:37.090Z,-2.10
2023-02-08T21:14:05.364Z,-2.10
2023-02-08T21:16:32.959Z,-2.20
2023-02-08T21:19:00.289Z,-2.30
2023-02-08T21:21:28.522Z,-2.30
2023-02-08T21:23:57.813Z,-2.50
2023-02-08T21:26:26.600Z,-2.40
2023-02-08T21:28:55.608Z,-2.40
2023-02-08T21:31:23.757Z,-2.50
2023-02-08T21:33:51.806Z,-2.40
2023-02-08T21:36:21.870Z,-2.50
2023-02-08T21:38:48.896Z,-2.50
2023-02-08T21:41:23.279Z,-2.70
2023-02-08T21:43:53.037Z,-2.60
2023-02-08T21:46:20.539Z,-2.60
2023-02-08T21:49:07.825Z,-2.60
2023-02-08T21:51:53.440Z,-2.70
2023-02-08T21:54:41.470Z,-2.60
2023-02-08T21:57:14.771Z,-2.60
2023-02-08T21:59:41.911Z,-2.70
2023-02-08T22:02:13.488Z,-2.60
2023-02-08T22:04:58.940Z,-2.60
2023-02-08T22:07:26.644Z,-2.70
2023-02-08T22:09:54.245Z,-2.90
2023-02-08T22:12:22.983Z,-2.70
2023-02-08T22:14:50.184Z,-2.80
2023-02-08T22:17:17.081Z,-2.90
2023-02-08T22:19:43.997Z,-2.90
2023-02-08T22:22:12.384Z,-3.00
2023-02-08T22:24:39.306Z,-2.90
2023-02-08T22:27:06.717Z,-2.90
2023-02-08T22:29:34.771Z,-3.00
2023-02-08T22:32:01.760Z,-3.00
2023-02-08T22:34:29.223Z,-3.00
2023-02-08T22:36:56.015Z,-3.00
2023-02-08T22:39:23.063Z,-3.10
2023-02-08T22:41:49.951Z,-3.10
2023-02-08T22:44:16.822Z,-2.70
2023-02-08T22:46:43.651Z,-3.10
2023-02-08T22:49:10.531Z,-3.10
2023-02-08T22:51:38.009Z,-3.10
2023-02-08T22:54:04.991Z,-3.10
2023-02-08T22:56:32.006Z,-3.10
2023-02-08T22:59:02.490Z,-3.10
2023-02-08T23:01:29.400Z,-3.10
2023-02-08T23:03:56.751Z,-3.10
2023-02-08T23:06:23.489Z,-3.20
2023-02-08T23:08:50.996Z,-3.20
2023-02-08T23:11:18.570Z,-3.10
2023-02-08T23:13:45.459Z,-3.20
2023-02-08T23:16:16.934Z,-3.20
2023-02-08T23:18:44.252Z,-3.10
2023-02-08T23:21:19.381Z,-3.00
2023-02-08T23:23:47.592Z,-3.10
2023-02-08T23:26:18.130Z,-3.10
2023-02-08T23:28:45.632Z,-3.20
2023-02-08T23:31:14.413Z,-3.20
2023-02-08T23:33:41.993Z,-3.30
2023-02-08T23:36:12.434Z,-3.20
2023-02-08T23:38:40.114Z,-3.20
2023-02-08T23:41:09.691Z,-3.20
2023-02-08T23:43:36.970Z,-3.20
2023-02-08T23:46:15.667Z,-3.30
2023-02-08T23:48:43.074Z,-3.20
2023-02-08T23:51:10.404Z,-3.20
2023-02-08T23:53:37.773Z,-3.30
2023-02-08T23:56:08.034Z,-3.20
2023-02-08T23:58:35.750Z,-3.20
